sensor_id;sensor_type;location;lat;lon;timestamp;temperature;humidity
29721;DHT22;23665;51.044;3.748;2022-07-23T00:00:53;20.50;99.90
29721;DHT22;23665;51.044;3.748;2022-07-23T00:03:18;20.70;99.90
29721;DHT22;23665;51.044;3.748;2022-07-23T00:05:44;20.70;99.90
29721;DHT22;23665;51.044;3.748;2022-07-23T00:08:10;20.90;99.90
29721;DHT22;23665;51.044;3.748;2022-07-23T00:10:36;21.00;99.90
29721;DHT22;23665;51.044;3.748;2022-07-23T00:13:02;20.80;99.90
29721;DHT22;23665;51.044;3.748;2022-07-23T00:15:28;20.80;99.90
29721;DHT22;23665;51.044;3.748;2022-07-23T00:17:54;20.70;99.90
29721;DHT22;23665;51.044;3.748;2022-07-23T00:20:20;20.70;99.90
29721;DHT22;23665;51.044;3.748;2022-07-23T00:22:50;20.70;99.90
29721;DHT22;23665;51.044;3.748;2022-07-23T00:25:16;20.80;99.90
29721;DHT22;23665;51.044;3.748;2022-07-23T00:27:42;21.00;99.90
29721;DHT22;23665;51.044;3.748;2022-07-23T00:30:08;20.70;99.90
29721;DHT22;23665;51.044;3.748;2022-07-23T00:32:48;20.40;99.90
29721;DHT22;23665;51.044;3.748;2022-07-23T00:35:16;20.20;99.90
29721;DHT22;23665;51.044;3.748;2022-07-23T00:37:41;20.20;99.90
29721;DHT22;23665;51.044;3.748;2022-07-23T00:40:08;20.40;99.90
29721;DHT22;23665;51.044;3.748;2022-07-23T00:42:34;20.30;99.90
29721;DHT22;23665;51.044;3.748;2022-07-23T00:45:00;20.10;99.90
29721;DHT22;23665;51.044;3.748;2022-07-23T00:47:26;20.10;99.90
29721;DHT22;23665;51.044;3.748;2022-07-23T00:49:51;20.20;99.90
29721;DHT22;23665;51.044;3.748;2022-07-23T00:52:18;20.30;99.90
29721;DHT22;23665;51.044;3.748;2022-07-23T00:54:44;20.20;99.90
29721;DHT22;23665;51.044;3.748;2022-07-23T00:57:10;20.20;99.90
29721;DHT22;23665;51.044;3.748;2022-07-23T00:59:38;20.10;99.90
29721;DHT22;23665;51.044;3.748;2022-07-23T01:02:04;20.00;99.90
29721;DHT22;23665;51.044;3.748;2022-07-23T01:04:30;19.90;99.90
29721;DHT22;23665;51.044;3.748;2022-07-23T01:06:55;19.90;99.90
29721;DHT22;23665;51.044;3.748;2022-07-23T01:09:21;19.90;99.90
29721;DHT22;23665;51.044;3.748;2022-07-23T01:11:47;20.00;99.90
29721;DHT22;23665;51.044;3.748;2022-07-23T01:14:17;19.90;99.90
29721;DHT22;23665;51.044;3.748;2022-07-23T01:16:45;20.00;99.90
29721;DHT22;23665;51.044;3.748;2022-07-23T01:19:12;20.00;99.90
29721;DHT22;23665;51.044;3.748;2022-07-23T01:21:43;20.10;99.90
29721;DHT22;23665;51.044;3.748;2022-07-23T01:24:11;19.90;99.90
29721;DHT22;23665;51.044;3.748;2022-07-23T01:26:38;19.60;99.90
29721;DHT22;23665;51.044;3.748;2022-07-23T01:29:05;19.30;99.90
29721;DHT22;23665;51.044;3.748;2022-07-23T01:31:31;19.10;99.90
29721;DHT22;23665;51.044;3.748;2022-07-23T01:33:57;19.00;99.90
29721;DHT22;23665;51.044;3.748;2022-07-23T01:36:23;18.80;99.90
29721;DHT22;23665;51.044;3.748;2022-07-23T01:38:49;18.50;99.90
29721;DHT22;23665;51.044;3.748;2022-07-23T01:41:14;18.30;99.90
29721;DHT22;23665;51.044;3.748;2022-07-23T01:43:40;18.40;99.90
29721;DHT22;23665;51.044;3.748;2022-07-23T01:46:06;18.40;99.90
29721;DHT22;23665;51.044;3.748;2022-07-23T01:48:32;18.30;99.90
29721;DHT22;23665;51.044;3.748;2022-07-23T01:50:57;18.20;99.90
29721;DHT22;23665;51.044;3.748;2022-07-23T01:53:23;18.10;99.90
29721;DHT22;23665;51.044;3.748;2022-07-23T01:55:49;18.10;99.90
29721;DHT22;23665;51.044;3.748;2022-07-23T01:58:14;18.00;99.90
29721;DHT22;23665;51.044;3.748;2022-07-23T02:00:40;18.00;99.90
29721;DHT22;23665;51.044;3.748;2022-07-23T02:03:06;17.90;99.90
29721;DHT22;23665;51.044;3.748;2022-07-23T02:05:32;17.90;99.90
29721;DHT22;23665;51.044;3.748;2022-07-23T02:07:58;18.00;99.90
29721;DHT22;23665;51.044;3.748;2022-07-23T02:10:25;18.00;99.90
29721;DHT22;23665;51.044;3.748;2022-07-23T02:12:51;17.90;99.90
29721;DHT22;23665;51.044;3.748;2022-07-23T02:15:17;18.00;99.90
29721;DHT22;23665;51.044;3.748;2022-07-23T02:17:42;18.10;99.90
29721;DHT22;23665;51.044;3.748;2022-07-23T02:20:10;18.20;99.90
29721;DHT22;23665;51.044;3.748;2022-07-23T02:22:36;18.30;99.90
29721;DHT22;23665;51.044;3.748;2022-07-23T02:25:04;18.30;99.90
29721;DHT22;23665;51.044;3.748;2022-07-23T02:27:30;18.40;99.90
29721;DHT22;23665;51.044;3.748;2022-07-23T02:29:55;18.50;99.90
29721;DHT22;23665;51.044;3.748;2022-07-23T02:32:21;18.40;99.90
29721;DHT22;23665;51.044;3.748;2022-07-23T02:34:47;18.20;99.90
29721;DHT22;23665;51.044;3.748;2022-07-23T02:37:13;18.20;99.90
29721;DHT22;23665;51.044;3.748;2022-07-23T02:39:39;18.00;99.90
29721;DHT22;23665;51.044;3.748;2022-07-23T02:42:05;18.00;99.90
29721;DHT22;23665;51.044;3.748;2022-07-23T02:44:30;17.90;99.90
29721;DHT22;23665;51.044;3.748;2022-07-23T02:46:56;17.80;99.90
29721;DHT22;23665;51.044;3.748;2022-07-23T02:49:22;17.70;99.90
29721;DHT22;23665;51.044;3.748;2022-07-23T02:51:49;17.60;99.90
29721;DHT22;23665;51.044;3.748;2022-07-23T02:54:15;17.50;99.90
29721;DHT22;23665;51.044;3.748;2022-07-23T02:56:40;17.60;99.90
29721;DHT22;23665;51.044;3.748;2022-07-23T02:59:06;17.50;99.90
29721;DHT22;23665;51.044;3.748;2022-07-23T03:01:32;17.50;99.90
29721;DHT22;23665;51.044;3.748;2022-07-23T03:03:57;17.60;99.90
29721;DHT22;23665;51.044;3.748;2022-07-23T03:06:23;17.70;99.90
29721;DHT22;23665;51.044;3.748;2022-07-23T03:08:49;17.70;99.90
29721;DHT22;23665;51.044;3.748;2022-07-23T03:11:14;17.60;99.90
29721;DHT22;23665;51.044;3.748;2022-07-23T03:13:40;17.50;99.90
29721;DHT22;23665;51.044;3.748;2022-07-23T03:16:07;17.60;99.90
29721;DHT22;23665;51.044;3.748;2022-07-23T03:18:33;17.70;99.90
29721;DHT22;23665;51.044;3.748;2022-07-23T03:20:59;17.70;99.90
29721;DHT22;23665;51.044;3.748;2022-07-23T03:23:25;17.70;99.90
29721;DHT22;23665;51.044;3.748;2022-07-23T03:25:51;17.60;99.90
29721;DHT22;23665;51.044;3.748;2022-07-23T03:28:18;17.70;99.90
29721;DHT22;23665;51.044;3.748;2022-07-23T03:30:45;17.50;99.90
29721;DHT22;23665;51.044;3.748;2022-07-23T03:33:17;17.20;99.90
29721;DHT22;23665;51.044;3.748;2022-07-23T03:35:44;17.20;99.90
29721;DHT22;23665;51.044;3.748;2022-07-23T03:38:10;17.30;99.90
29721;DHT22;23665;51.044;3.748;2022-07-23T03:40:36;17.40;99.90
29721;DHT22;23665;51.044;3.748;2022-07-23T03:43:02;17.50;99.90
29721;DHT22;23665;51.044;3.748;2022-07-23T03:45:27;17.60;99.90
29721;DHT22;23665;51.044;3.748;2022-07-23T03:47:53;17.70;99.90
29721;DHT22;23665;51.044;3.748;2022-07-23T03:50:19;18.00;99.90
29721;DHT22;23665;51.044;3.748;2022-07-23T03:52:44;18.20;99.90
29721;DHT22;23665;51.044;3.748;2022-07-23T03:55:10;18.20;99.90
29721;DHT22;23665;51.044;3.748;2022-07-23T03:57:36;18.30;99.90
29721;DHT22;23665;51.044;3.748;2022-07-23T04:00:04;18.00;99.90
29721;DHT22;23665;51.044;3.748;2022-07-23T04:02:31;17.90;99.90
29721;DHT22;23665;51.044;3.748;2022-07-23T04:04:56;18.30;99.90
29721;DHT22;23665;51.044;3.748;2022-07-23T04:07:22;18.60;99.90
29721;DHT22;23665;51.044;3.748;2022-07-23T04:09:48;18.90;99.90
29721;DHT22;23665;51.044;3.748;2022-07-23T04:12:14;19.00;99.90
29721;DHT22;23665;51.044;3.748;2022-07-23T04:14:40;19.40;99.90
29721;DHT22;23665;51.044;3.748;2022-07-23T04:17:06;19.60;99.90
29721;DHT22;23665;51.044;3.748;2022-07-23T04:19:31;19.70;99.90
29721;DHT22;23665;51.044;3.748;2022-07-23T04:21:57;19.70;99.90
29721;DHT22;23665;51.044;3.748;2022-07-23T04:24:23;19.70;99.90
29721;DHT22;23665;51.044;3.748;2022-07-23T04:26:48;19.80;99.90
29721;DHT22;23665;51.044;3.748;2022-07-23T04:29:14;19.60;99.90
29721;DHT22;23665;51.044;3.748;2022-07-23T04:31:40;19.60;99.90
29721;DHT22;23665;51.044;3.748;2022-07-23T04:34:06;19.80;99.90
29721;DHT22;23665;51.044;3.748;2022-07-23T04:36:32;19.90;99.90
29721;DHT22;23665;51.044;3.748;2022-07-23T04:38:57;19.90;99.90
29721;DHT22;23665;51.044;3.748;2022-07-23T04:41:23;20.20;99.90
29721;DHT22;23665;51.044;3.748;2022-07-23T04:43:49;20.30;99.90
29721;DHT22;23665;51.044;3.748;2022-07-23T04:46:14;20.00;99.90
29721;DHT22;23665;51.044;3.748;2022-07-23T04:48:40;19.90;99.90
29721;DHT22;23665;51.044;3.748;2022-07-23T04:51:07;19.80;99.90
29721;DHT22;23665;51.044;3.748;2022-07-23T04:53:33;19.80;99.90
29721;DHT22;23665;51.044;3.748;2022-07-23T04:55:59;19.90;99.90
29721;DHT22;23665;51.044;3.748;2022-07-23T04:58:24;20.00;99.90
29721;DHT22;23665;51.044;3.748;2022-07-23T05:00:50;20.00;99.90
29721;DHT22;23665;51.044;3.748;2022-07-23T05:03:16;20.10;99.90
29721;DHT22;23665;51.044;3.748;2022-07-23T05:05:42;20.20;99.90
29721;DHT22;23665;51.044;3.748;2022-07-23T05:08:08;20.20;99.90
29721;DHT22;23665;51.044;3.748;2022-07-23T05:10:34;20.40;99.90
29721;DHT22;23665;51.044;3.748;2022-07-23T05:12:59;20.40;99.90
29721;DHT22;23665;51.044;3.748;2022-07-23T05:15:25;20.40;99.90
29721;DHT22;23665;51.044;3.748;2022-07-23T05:17:51;20.50;99.90
29721;DHT22;23665;51.044;3.748;2022-07-23T05:20:17;20.40;99.90
29721;DHT22;23665;51.044;3.748;2022-07-23T05:22:42;20.60;99.90
29721;DHT22;23665;51.044;3.748;2022-07-23T05:25:08;20.70;99.90
29721;DHT22;23665;51.044;3.748;2022-07-23T05:27:34;20.60;99.90
29721;DHT22;23665;51.044;3.748;2022-07-23T05:30:00;20.60;99.90
29721;DHT22;23665;51.044;3.748;2022-07-23T05:32:26;20.50;99.90
29721;DHT22;23665;51.044;3.748;2022-07-23T05:34:51;20.60;99.90
29721;DHT22;23665;51.044;3.748;2022-07-23T05:37:17;20.60;99.90
29721;DHT22;23665;51.044;3.748;2022-07-23T05:39:43;20.60;99.90
29721;DHT22;23665;51.044;3.748;2022-07-23T05:42:08;20.70;99.90
29721;DHT22;23665;51.044;3.748;2022-07-23T05:44:34;20.90;99.90
29721;DHT22;23665;51.044;3.748;2022-07-23T05:47:00;20.90;99.90
29721;DHT22;23665;51.044;3.748;2022-07-23T05:49:27;21.00;99.90
29721;DHT22;23665;51.044;3.748;2022-07-23T05:51:53;21.00;99.90
29721;DHT22;23665;51.044;3.748;2022-07-23T05:54:19;21.20;99.90
29721;DHT22;23665;51.044;3.748;2022-07-23T05:56:44;21.20;99.90
29721;DHT22;23665;51.044;3.748;2022-07-23T05:59:10;21.20;99.90
29721;DHT22;23665;51.044;3.748;2022-07-23T06:01:37;21.10;99.90
29721;DHT22;23665;51.044;3.748;2022-07-23T06:04:03;20.90;99.90
29721;DHT22;23665;51.044;3.748;2022-07-23T06:06:29;20.90;99.90
29721;DHT22;23665;51.044;3.748;2022-07-23T06:08:54;21.00;99.90
29721;DHT22;23665;51.044;3.748;2022-07-23T06:11:20;21.30;99.90
29721;DHT22;23665;51.044;3.748;2022-07-23T06:13:46;21.40;99.90
29721;DHT22;23665;51.044;3.748;2022-07-23T06:16:11;21.50;99.90
29721;DHT22;23665;51.044;3.748;2022-07-23T06:18:37;21.60;99.90
29721;DHT22;23665;51.044;3.748;2022-07-23T06:21:03;21.70;99.90
29721;DHT22;23665;51.044;3.748;2022-07-23T06:23:29;21.60;99.90
29721;DHT22;23665;51.044;3.748;2022-07-23T06:25:54;21.20;99.90
29721;DHT22;23665;51.044;3.748;2022-07-23T06:28:20;21.20;99.90
29721;DHT22;23665;51.044;3.748;2022-07-23T06:30:46;21.10;99.90
29721;DHT22;23665;51.044;3.748;2022-07-23T06:33:11;21.20;99.90
29721;DHT22;23665;51.044;3.748;2022-07-23T06:35:37;21.40;99.90
29721;DHT22;23665;51.044;3.748;2022-07-23T06:38:03;21.60;99.90
29721;DHT22;23665;51.044;3.748;2022-07-23T06:40:29;21.60;99.90
29721;DHT22;23665;51.044;3.748;2022-07-23T06:42:55;21.50;99.90
29721;DHT22;23665;51.044;3.748;2022-07-23T06:45:20;21.60;99.90
29721;DHT22;23665;51.044;3.748;2022-07-23T06:47:46;21.70;99.90
29721;DHT22;23665;51.044;3.748;2022-07-23T06:50:12;21.70;99.90
29721;DHT22;23665;51.044;3.748;2022-07-23T06:52:38;21.90;99.90
29721;DHT22;23665;51.044;3.748;2022-07-23T06:55:04;21.80;99.90
29721;DHT22;23665;51.044;3.748;2022-07-23T06:57:29;21.80;99.90
29721;DHT22;23665;51.044;3.748;2022-07-23T06:59:55;21.80;99.90
29721;DHT22;23665;51.044;3.748;2022-07-23T07:02:21;21.70;99.90
29721;DHT22;23665;51.044;3.748;2022-07-23T07:04:47;21.90;99.90
29721;DHT22;23665;51.044;3.748;2022-07-23T07:07:12;21.80;99.90
29721;DHT22;23665;51.044;3.748;2022-07-23T07:09:38;21.90;99.90
29721;DHT22;23665;51.044;3.748;2022-07-23T07:12:04;21.50;99.90
29721;DHT22;23665;51.044;3.748;2022-07-23T07:14:30;21.60;99.90
29721;DHT22;23665;51.044;3.748;2022-07-23T07:16:55;21.90;99.90
29721;DHT22;23665;51.044;3.748;2022-07-23T07:19:21;22.10;99.90
29721;DHT22;23665;51.044;3.748;2022-07-23T07:21:47;22.20;99.90
29721;DHT22;23665;51.044;3.748;2022-07-23T07:24:12;22.50;99.90
29721;DHT22;23665;51.044;3.748;2022-07-23T07:26:38;22.50;99.90
29721;DHT22;23665;51.044;3.748;2022-07-23T07:29:05;22.70;99.90
29721;DHT22;23665;51.044;3.748;2022-07-23T07:31:31;22.90;99.90
29721;DHT22;23665;51.044;3.748;2022-07-23T07:33:57;23.10;99.90
29721;DHT22;23665;51.044;3.748;2022-07-23T07:36:23;23.10;99.90
29721;DHT22;23665;51.044;3.748;2022-07-23T07:38:49;22.80;99.90
29721;DHT22;23665;51.044;3.748;2022-07-23T07:41:15;23.10;99.90
29721;DHT22;23665;51.044;3.748;2022-07-23T07:43:41;23.40;99.90
29721;DHT22;23665;51.044;3.748;2022-07-23T07:46:07;23.60;99.90
29721;DHT22;23665;51.044;3.748;2022-07-23T07:48:37;23.70;99.90
29721;DHT22;23665;51.044;3.748;2022-07-23T07:51:04;23.70;99.90
29721;DHT22;23665;51.044;3.748;2022-07-23T07:53:30;24.10;99.90
29721;DHT22;23665;51.044;3.748;2022-07-23T07:55:55;24.60;99.90
29721;DHT22;23665;51.044;3.748;2022-07-23T07:58:21;24.70;99.90
29721;DHT22;23665;51.044;3.748;2022-07-23T08:00:47;24.70;99.90
29721;DHT22;23665;51.044;3.748;2022-07-23T08:03:13;24.50;99.90
29721;DHT22;23665;51.044;3.748;2022-07-23T08:05:39;24.30;99.90
29721;DHT22;23665;51.044;3.748;2022-07-23T08:08:04;24.30;99.90
29721;DHT22;23665;51.044;3.748;2022-07-23T08:10:30;24.50;99.90
29721;DHT22;23665;51.044;3.748;2022-07-23T08:12:57;24.80;99.90
29721;DHT22;23665;51.044;3.748;2022-07-23T08:15:25;24.30;99.90
29721;DHT22;23665;51.044;3.748;2022-07-23T08:17:51;24.30;99.90
29721;DHT22;23665;51.044;3.748;2022-07-23T08:20:19;24.50;99.90
29721;DHT22;23665;51.044;3.748;2022-07-23T08:25:29;24.50;99.90
29721;DHT22;23665;51.044;3.748;2022-07-23T08:27:55;24.50;99.90
29721;DHT22;23665;51.044;3.748;2022-07-23T08:30:21;24.50;99.90
29721;DHT22;23665;51.044;3.748;2022-07-23T08:32:56;24.80;99.90
29721;DHT22;23665;51.044;3.748;2022-07-23T08:35:29;24.80;99.90
29721;DHT22;23665;51.044;3.748;2022-07-23T08:37:57;24.70;99.90
29721;DHT22;23665;51.044;3.748;2022-07-23T08:40:25;25.10;99.90
29721;DHT22;23665;51.044;3.748;2022-07-23T08:42:51;25.10;99.90
29721;DHT22;23665;51.044;3.748;2022-07-23T08:45:19;25.40;99.90
29721;DHT22;23665;51.044;3.748;2022-07-23T08:47:48;25.30;99.90
29721;DHT22;23665;51.044;3.748;2022-07-23T08:50:14;25.40;99.90
29721;DHT22;23665;51.044;3.748;2022-07-23T08:52:40;25.70;99.90
29721;DHT22;23665;51.044;3.748;2022-07-23T08:55:07;25.80;99.90
29721;DHT22;23665;51.044;3.748;2022-07-23T08:57:34;25.60;99.90
29721;DHT22;23665;51.044;3.748;2022-07-23T08:59:59;25.70;99.90
29721;DHT22;23665;51.044;3.748;2022-07-23T09:02:25;25.00;99.90
29721;DHT22;23665;51.044;3.748;2022-07-23T09:04:51;24.50;99.90
29721;DHT22;23665;51.044;3.748;2022-07-23T09:07:16;24.20;99.90
29721;DHT22;23665;51.044;3.748;2022-07-23T09:09:42;24.20;99.90
29721;DHT22;23665;51.044;3.748;2022-07-23T09:12:09;24.70;99.90
29721;DHT22;23665;51.044;3.748;2022-07-23T09:14:43;25.20;99.90
29721;DHT22;23665;51.044;3.748;2022-07-23T09:17:14;25.60;99.90
29721;DHT22;23665;51.044;3.748;2022-07-23T09:19:41;25.70;99.90
29721;DHT22;23665;51.044;3.748;2022-07-23T09:22:17;26.00;99.90
29721;DHT22;23665;51.044;3.748;2022-07-23T09:25:07;25.40;99.90
29721;DHT22;23665;51.044;3.748;2022-07-23T09:30:21;25.80;99.90
29721;DHT22;23665;51.044;3.748;2022-07-23T09:33:06;26.40;99.90
29721;DHT22;23665;51.044;3.748;2022-07-23T09:35:53;26.80;99.90
29721;DHT22;23665;51.044;3.748;2022-07-23T09:38:20;26.40;99.90
29721;DHT22;23665;51.044;3.748;2022-07-23T09:40:47;26.50;99.90
29721;DHT22;23665;51.044;3.748;2022-07-23T09:43:30;26.20;99.90
29721;DHT22;23665;51.044;3.748;2022-07-23T09:46:23;25.90;99.90
29721;DHT22;23665;51.044;3.748;2022-07-23T09:49:13;26.20;99.90
29721;DHT22;23665;51.044;3.748;2022-07-23T09:51:48;26.30;99.90
29721;DHT22;23665;51.044;3.748;2022-07-23T09:54:27;26.50;99.90
29721;DHT22;23665;51.044;3.748;2022-07-23T09:56:55;26.80;99.90
29721;DHT22;23665;51.044;3.748;2022-07-23T09:59:32;26.80;99.90
29721;DHT22;23665;51.044;3.748;2022-07-23T10:01:59;26.10;99.90
29721;DHT22;23665;51.044;3.748;2022-07-23T10:04:27;25.90;99.90
29721;DHT22;23665;51.044;3.748;2022-07-23T10:06:55;26.10;99.90
29721;DHT22;23665;51.044;3.748;2022-07-23T10:09:32;26.50;99.90
29721;DHT22;23665;51.044;3.748;2022-07-23T10:12:05;26.70;99.90
29721;DHT22;23665;51.044;3.748;2022-07-23T10:14:44;26.60;99.90
29721;DHT22;23665;51.044;3.748;2022-07-23T10:17:10;26.70;99.90
29721;DHT22;23665;51.044;3.748;2022-07-23T10:19:37;26.40;99.90
29721;DHT22;23665;51.044;3.748;2022-07-23T10:22:14;26.70;99.90
29721;DHT22;23665;51.044;3.748;2022-07-23T10:41:13;26.80;99.90
29721;DHT22;23665;51.044;3.748;2022-07-23T10:43:39;27.10;99.90
29721;DHT22;23665;51.044;3.748;2022-07-23T10:46:24;27.70;99.90
29721;DHT22;23665;51.044;3.748;2022-07-23T10:49:30;28.10;99.90
29721;DHT22;23665;51.044;3.748;2022-07-23T10:52:26;28.20;99.90
29721;DHT22;23665;51.044;3.748;2022-07-23T10:55:00;28.10;99.90
29721;DHT22;23665;51.044;3.748;2022-07-23T10:57:49;28.00;99.90
29721;DHT22;23665;51.044;3.748;2022-07-23T11:00:21;28.20;99.90
29721;DHT22;23665;51.044;3.748;2022-07-23T11:02:48;27.70;99.90
29721;DHT22;23665;51.044;3.748;2022-07-23T11:05:41;27.00;99.90
29721;DHT22;23665;51.044;3.748;2022-07-23T11:10:56;27.50;99.90
29721;DHT22;23665;51.044;3.748;2022-07-23T11:13:40;28.00;99.90
29721;DHT22;23665;51.044;3.748;2022-07-23T11:16:15;27.90;99.90
29721;DHT22;23665;51.044;3.748;2022-07-23T11:24:14;27.20;99.90
29721;DHT22;23665;51.044;3.748;2022-07-23T11:31:58;28.00;99.90
29721;DHT22;23665;51.044;3.748;2022-07-23T11:37:02;28.70;99.90
29721;DHT22;23665;51.044;3.748;2022-07-23T11:39:29;28.60;99.90
29721;DHT22;23665;51.044;3.748;2022-07-23T11:41:56;28.60;99.90
29721;DHT22;23665;51.044;3.748;2022-07-23T11:44:30;28.80;99.90
29721;DHT22;23665;51.044;3.748;2022-07-23T11:46:58;29.10;99.90
29721;DHT22;23665;51.044;3.748;2022-07-23T11:49:25;29.60;99.90
29721;DHT22;23665;51.044;3.748;2022-07-23T11:54:30;29.50;99.90
29721;DHT22;23665;51.044;3.748;2022-07-23T11:57:00;28.70;99.90
29721;DHT22;23665;51.044;3.748;2022-07-23T11:59:28;28.60;99.90
29721;DHT22;23665;51.044;3.748;2022-07-23T12:01:58;28.90;99.90
29721;DHT22;23665;51.044;3.748;2022-07-23T12:12:51;29.60;99.90
29721;DHT22;23665;51.044;3.748;2022-07-23T12:15:20;29.00;99.90
29721;DHT22;23665;51.044;3.748;2022-07-23T12:17:49;28.20;99.90
29721;DHT22;23665;51.044;3.748;2022-07-23T12:20:26;28.40;99.90
29721;DHT22;23665;51.044;3.748;2022-07-23T12:22:56;28.80;99.90
29721;DHT22;23665;51.044;3.748;2022-07-23T12:25:24;29.10;99.90
29721;DHT22;23665;51.044;3.748;2022-07-23T12:28:03;29.30;99.90
29721;DHT22;23665;51.044;3.748;2022-07-23T12:33:01;29.70;99.90
29721;DHT22;23665;51.044;3.748;2022-07-23T12:38:03;29.70;99.90
29721;DHT22;23665;51.044;3.748;2022-07-23T12:40:31;29.50;99.90
29721;DHT22;23665;51.044;3.748;2022-07-23T12:43:04;29.40;99.90
29721;DHT22;23665;51.044;3.748;2022-07-23T12:51:04;29.50;99.90
29721;DHT22;23665;51.044;3.748;2022-07-23T12:53:33;29.40;99.90
29721;DHT22;23665;51.044;3.748;2022-07-23T12:56:05;29.70;99.90
29721;DHT22;23665;51.044;3.748;2022-07-23T12:58:49;29.50;99.90
29721;DHT22;23665;51.044;3.748;2022-07-23T13:06:32;29.60;99.90
29721;DHT22;23665;51.044;3.748;2022-07-23T13:08:59;29.70;99.90
29721;DHT22;23665;51.044;3.748;2022-07-23T13:11:25;30.10;99.90
29721;DHT22;23665;51.044;3.748;2022-07-23T13:13:51;30.30;97.40
29721;DHT22;23665;51.044;3.748;2022-07-23T13:16:17;30.60;40.70
29721;DHT22;23665;51.044;3.748;2022-07-23T13:18:42;30.90;99.90
29721;DHT22;23665;51.044;3.748;2022-07-23T13:21:08;31.10;99.90
29721;DHT22;23665;51.044;3.748;2022-07-23T13:23:35;30.80;1.00
29721;DHT22;23665;51.044;3.748;2022-07-23T13:26:01;30.70;1.00
29721;DHT22;23665;51.044;3.748;2022-07-23T13:28:26;30.40;1.00
29721;DHT22;23665;51.044;3.748;2022-07-23T13:30:53;30.20;1.00
29721;DHT22;23665;51.044;3.748;2022-07-23T13:33:20;30.10;1.00
29721;DHT22;23665;51.044;3.748;2022-07-23T13:35:47;29.90;1.00
29721;DHT22;23665;51.044;3.748;2022-07-23T13:38:13;30.20;1.00
29721;DHT22;23665;51.044;3.748;2022-07-23T13:40:41;30.40;1.00
29721;DHT22;23665;51.044;3.748;2022-07-23T13:43:10;30.50;8.70
29721;DHT22;23665;51.044;3.748;2022-07-23T13:45:36;30.50;1.00
29721;DHT22;23665;51.044;3.748;2022-07-23T13:48:02;30.70;1.00
29721;DHT22;23665;51.044;3.748;2022-07-23T13:50:28;30.90;1.00
29721;DHT22;23665;51.044;3.748;2022-07-23T13:52:54;31.10;1.00
29721;DHT22;23665;51.044;3.748;2022-07-23T13:55:19;31.00;1.00
29721;DHT22;23665;51.044;3.748;2022-07-23T13:57:45;30.70;1.00
29721;DHT22;23665;51.044;3.748;2022-07-23T14:00:12;31.00;1.00
29721;DHT22;23665;51.044;3.748;2022-07-23T14:02:39;30.50;1.00
29721;DHT22;23665;51.044;3.748;2022-07-23T14:05:08;30.30;1.00
29721;DHT22;23665;51.044;3.748;2022-07-23T14:07:35;30.60;1.00
29721;DHT22;23665;51.044;3.748;2022-07-23T14:10:02;30.90;1.00
29721;DHT22;23665;51.044;3.748;2022-07-23T14:12:28;31.00;1.00
29721;DHT22;23665;51.044;3.748;2022-07-23T14:14:54;31.00;1.00
29721;DHT22;23665;51.044;3.748;2022-07-23T14:17:20;31.20;1.00
29721;DHT22;23665;51.044;3.748;2022-07-23T14:19:46;31.20;1.00
29721;DHT22;23665;51.044;3.748;2022-07-23T14:22:11;31.20;1.00
29721;DHT22;23665;51.044;3.748;2022-07-23T14:24:37;31.20;1.00
29721;DHT22;23665;51.044;3.748;2022-07-23T14:27:04;31.20;1.00
29721;DHT22;23665;51.044;3.748;2022-07-23T14:29:30;30.80;1.00
29721;DHT22;23665;51.044;3.748;2022-07-23T14:31:56;31.00;1.00
29721;DHT22;23665;51.044;3.748;2022-07-23T14:34:22;30.70;1.00
29721;DHT22;23665;51.044;3.748;2022-07-23T14:36:48;30.20;1.00
29721;DHT22;23665;51.044;3.748;2022-07-23T14:39:14;29.70;1.00
29721;DHT22;23665;51.044;3.748;2022-07-23T14:41:40;30.10;1.00
29721;DHT22;23665;51.044;3.748;2022-07-23T14:44:06;30.90;1.00
29721;DHT22;23665;51.044;3.748;2022-07-23T14:46:32;31.20;1.00
29721;DHT22;23665;51.044;3.748;2022-07-23T14:48:58;31.10;1.00
29721;DHT22;23665;51.044;3.748;2022-07-23T14:51:23;31.30;1.00
29721;DHT22;23665;51.044;3.748;2022-07-23T14:53:49;31.50;1.00
29721;DHT22;23665;51.044;3.748;2022-07-23T14:56:16;31.40;1.00
29721;DHT22;23665;51.044;3.748;2022-07-23T14:58:42;31.40;1.00
29721;DHT22;23665;51.044;3.748;2022-07-23T15:01:08;31.00;1.00
29721;DHT22;23665;51.044;3.748;2022-07-23T15:03:34;31.20;1.00
29721;DHT22;23665;51.044;3.748;2022-07-23T15:06:00;31.50;1.00
29721;DHT22;23665;51.044;3.748;2022-07-23T15:08:25;30.90;1.00
29721;DHT22;23665;51.044;3.748;2022-07-23T15:10:51;31.20;1.00
29721;DHT22;23665;51.044;3.748;2022-07-23T15:13:17;31.70;1.00
29721;DHT22;23665;51.044;3.748;2022-07-23T15:15:43;31.50;1.00
29721;DHT22;23665;51.044;3.748;2022-07-23T15:18:09;31.20;1.00
29721;DHT22;23665;51.044;3.748;2022-07-23T15:20:35;31.20;1.00
29721;DHT22;23665;51.044;3.748;2022-07-23T15:23:03;31.30;1.00
29721;DHT22;23665;51.044;3.748;2022-07-23T15:25:29;31.30;1.00
29721;DHT22;23665;51.044;3.748;2022-07-23T15:27:57;31.20;1.00
29721;DHT22;23665;51.044;3.748;2022-07-23T15:30:25;31.10;1.00
29721;DHT22;23665;51.044;3.748;2022-07-23T15:32:50;30.90;1.00
29721;DHT22;23665;51.044;3.748;2022-07-23T15:35:16;31.00;1.00
29721;DHT22;23665;51.044;3.748;2022-07-23T15:37:42;30.90;1.00
29721;DHT22;23665;51.044;3.748;2022-07-23T15:40:09;31.10;1.00
29721;DHT22;23665;51.044;3.748;2022-07-23T15:42:36;31.30;1.00
29721;DHT22;23665;51.044;3.748;2022-07-23T15:45:02;31.40;1.00
29721;DHT22;23665;51.044;3.748;2022-07-23T15:47:28;31.20;1.00
29721;DHT22;23665;51.044;3.748;2022-07-23T15:49:54;31.20;1.00
29721;DHT22;23665;51.044;3.748;2022-07-23T15:52:20;31.00;1.00
29721;DHT22;23665;51.044;3.748;2022-07-23T15:54:46;31.20;1.00
29721;DHT22;23665;51.044;3.748;2022-07-23T15:57:12;31.00;1.00
29721;DHT22;23665;51.044;3.748;2022-07-23T15:59:38;31.00;1.00
29721;DHT22;23665;51.044;3.748;2022-07-23T16:02:04;31.00;1.00
29721;DHT22;23665;51.044;3.748;2022-07-23T16:04:31;30.80;1.00
29721;DHT22;23665;51.044;3.748;2022-07-23T16:06:57;31.00;1.00
29721;DHT22;23665;51.044;3.748;2022-07-23T16:09:24;31.10;1.00
29721;DHT22;23665;51.044;3.748;2022-07-23T16:11:50;31.00;1.00
29721;DHT22;23665;51.044;3.748;2022-07-23T16:14:16;31.20;1.00
29721;DHT22;23665;51.044;3.748;2022-07-23T16:16:42;31.40;1.00
29721;DHT22;23665;51.044;3.748;2022-07-23T16:19:08;31.60;1.00
29721;DHT22;23665;51.044;3.748;2022-07-23T16:21:34;31.70;1.00
29721;DHT22;23665;51.044;3.748;2022-07-23T16:24:00;32.10;1.00
29721;DHT22;23665;51.044;3.748;2022-07-23T16:26:26;32.80;1.00
29721;DHT22;23665;51.044;3.748;2022-07-23T16:28:52;33.60;1.00
29721;DHT22;23665;51.044;3.748;2022-07-23T16:31:19;34.50;1.00
29721;DHT22;23665;51.044;3.748;2022-07-23T16:33:45;35.10;1.00
29721;DHT22;23665;51.044;3.748;2022-07-23T16:36:12;34.80;1.00
29721;DHT22;23665;51.044;3.748;2022-07-23T16:38:39;34.00;99.90
29721;DHT22;23665;51.044;3.748;2022-07-23T16:41:06;33.60;1.00